Time;durP1;ratioP1;P1;durP2;ratioP2;P2;SDS_P1;SDS_P2;PMS_P1;PMS_P2;Temp;Humidity;BMP_temperature;BMP_pressure;BME280_temperature;BME280_humidity;BME280_pressure;Samples;Min_cycle;Max_cycle;Signal;HPM_P1;HPM_P2
2021/12/05 00:20:47;;;;;;;16.63;8.15;;;;;;;6.29;75.65;97962.69;5051021;28;20056;-62
2021/12/05 00:22:49;;;;;;;18.35;9.00;;;;;;;6.30;75.77;97963.50;5049406;28;20048;-62
2021/12/05 00:25:26;;;;;;;15.13;9.25;;;;;;;6.27;75.30;97966.34;5050833;28;20049;-62
2021/12/05 00:33:54;;;;;;;24.42;11.57;;;;;;;6.25;75.44;97975.09;5050640;28;20107;-62
2021/12/05 00:46:56;;;;;;;20.70;10.88;;;;;;;6.27;75.76;97975.00;5050661;28;20078;-62
2021/12/05 00:55:37;;;;;;;21.23;10.93;;;;;;;6.32;76.09;97999.03;5028023;28;20060;-62
2021/12/05 00:59:02;;;;;;;16.65;11.45;;;;;;;6.33;75.60;98005.09;5027776;28;20076;-63
2021/12/05 01:04:01;;;;;;;;;;;;;;;6.34;74.66;98006.78;5050543;28;20440;-64
2021/12/05 01:09:19;;;;;;;;;;;;;;;6.43;74.47;98015.78;5050809;28;19925;-62
2021/12/05 01:12:15;;;;;;;;;;;;;;;6.46;74.67;98021.63;5050939;28;20131;-61
2021/12/05 01:17:14;;;;;;;;;;;;;;;6.53;74.10;98011.59;5050794;28;19924;-62
2021/12/05 01:19:41;;;;;;;;;;;;;;;6.54;73.46;98009.81;5050315;28;19929;-62
2021/12/05 01:22:11;;;;;;;;;;;;;;;6.53;73.34;98008.97;5050741;28;20312;-61
2021/12/05 01:24:52;;;;;;;;;;;;;;;6.54;72.91;98015.88;5050316;28;19928;-61
2021/12/05 01:38:21;;;;;;;;;;;;;;;6.50;72.63;98024.84;5049104;28;19936;-63
2021/12/05 01:59:33;;;;;;;;;;;;;;;6.46;72.62;98031.22;5053846;28;19928;-61
2021/12/05 02:15:58;;;;;;;;;;;;;;;6.46;72.61;98031.22;5053495;28;19978;-63
2021/12/05 02:30:10;;;;;;;;;;;;;;;6.42;72.31;98053.31;5053081;28;20436;-64
2021/12/05 02:38:04;;;;;;;;;;;;;;;6.39;71.98;98043.88;5053399;28;19921;-63
2021/12/05 02:40:36;;;;;;;;;;;;;;;6.38;71.60;98050.91;5052829;28;19929;-61
2021/12/05 02:43:08;;;;;;;;;;;;;;;6.37;71.86;98049.25;5052956;28;19943;-62
2021/12/05 02:45:37;;;;;;;;;;;;;;;6.36;71.86;98047.53;5053108;28;19932;-61
2021/12/05 02:48:05;;;;;;;;;;;;;;;6.37;72.02;98046.63;5052792;28;19967;-61
2021/12/05 02:50:32;;;;;;;;;;;;;;;6.37;72.24;98046.63;5052650;28;19975;-61
2021/12/05 02:53:10;;;;;;;;;;;;;;;6.36;71.52;98044.13;5053023;28;20324;-62
2021/12/05 02:55:39;;;;;;;;;;;;;;;6.38;72.33;98043.06;5052566;28;19944;-62
2021/12/05 03:03:29;;;;;;;;;;;;;;;6.39;72.37;98039.50;5051637;28;19975;-61
2021/12/05 03:06:02;;;;;;;;;;;;;;;6.39;71.90;98025.59;5051256;28;19921;-61
2021/12/05 03:08:29;;;;;;;;;;;;;;;6.38;72.48;98023.91;5051534;28;19928;-60
2021/12/05 03:10:58;;;;;;;;;;;;;;;6.36;71.70;98031.03;5052292;28;19931;-61
2021/12/05 03:13:24;;;;;;;;;;;;;;;6.34;71.77;98035.53;5051381;28;19921;-61
2021/12/05 03:15:51;;;;;;;;;;;;;;;6.31;71.77;98033.13;5052500;28;19929;-62
2021/12/05 03:18:18;;;;;;;;;;;;;;;6.30;71.97;98041.91;5052165;28;19943;-61
2021/12/05 03:20:44;;;;;;;;;;;;;;;6.27;72.05;98037.72;5051052;28;19920;-61
2021/12/05 03:23:11;;;;;;;;;;;;;;;6.25;72.20;98034.38;5052429;28;19924;-61
2021/12/05 03:25:38;;;;;;;;;;;;;;;6.23;72.02;98036.25;5052360;28;19971;-62
2021/12/05 03:28:05;;;;;;;;;;;;;;;6.23;72.28;98028.41;5052314;28;19921;-60
2021/12/05 03:30:31;;;;;;;;;;;;;;;6.20;71.56;98034.69;5052202;28;19929;-61
2021/12/05 03:32:58;;;;;;;;;;;;;;;6.19;72.00;98029.53;5051833;28;19925;-61
2021/12/05 03:35:27;;;;;;;;;;;;;;;6.16;72.04;98035.00;5052334;28;19920;-61
2021/12/05 03:37:54;;;;;;;;;;;;;;;6.13;71.61;98034.25;5050924;28;19931;-61
2021/12/05 03:40:22;;;;;;;;;;;;;;;6.11;71.57;98033.53;5051910;28;20343;-60
2021/12/05 03:42:50;;;;;;;;;;;;;;;6.10;71.42;98036.25;5050704;28;19929;-61
2021/12/05 03:45:19;;;;;;;;;;;;;;;6.08;71.69;98028.50;5051669;28;19927;-61
2021/12/05 03:47:46;;;;;;;;;;;;;;;6.08;71.74;98038.09;5051613;28;19921;-62
2021/12/05 03:50:14;;;;;;;;;;;;;;;6.07;72.28;98042.50;5051625;28;20015;-61
2021/12/05 03:52:41;;;;;;;;;;;;;;;6.06;71.98;98037.38;5051824;28;19921;-61
2021/12/05 03:55:09;;;;;;;;;;;;;;;6.04;71.63;98047.06;5051778;28;19921;-61
2021/12/05 03:57:35;;;;;;;;;;;;;;;6.06;72.17;98050.44;5051746;28;19921;-61
2021/12/05 04:00:05;;;;;;;;;;;;;;;6.04;71.56;98045.31;5051500;28;19928;-63
2021/12/05 04:02:33;;;;;;;;;;;;;;;6.04;71.68;98042.69;5051630;28;20332;-63
2021/12/05 04:05:00;;;;;;;;;;;;;;;6.04;71.90;98045.31;5051651;28;19978;-62
2021/12/05 04:07:27;;;;;;;;;;;;;;;6.05;72.29;98044.38;5050291;28;19964;-61
2021/12/05 04:09:53;;;;;;;;;;;;;;;6.05;71.38;98054.00;5051225;28;19921;-61
2021/12/05 04:12:20;;;;;;;;;;;;;;;6.07;72.16;98058.19;5051177;28;19932;-63
2021/12/05 04:14:53;;;;;;;;;;;;;;;6.06;71.89;98056.47;5050955;28;19928;-61
2021/12/05 04:17:21;;;;;;;;;;;;;;;6.06;71.26;98053.88;5051304;28;19924;-65
2021/12/05 04:19:48;;;;;;;;;;;;;;;6.06;71.22;98064.31;5050078;28;19928;-61
2021/12/05 04:22:14;;;;;;;;;;;;;;;6.09;71.64;98058.91;5050986;28;19927;-63
2021/12/05 04:24:42;;;;;;;;;;;;;;;6.09;71.66;98056.28;5051176;28;19928;-61
2021/12/05 04:27:09;;;;;;;;;;;;;;;6.10;72.03;98057.97;5050997;28;19927;-63
2021/12/05 04:29:36;;;;;;;;;;;;;;;6.10;71.35;98072.81;5050910;28;19921;-62
2021/12/05 04:32:04;;;;;;;;;;;;;;;6.11;71.73;98071.88;5051195;28;19921;-62
2021/12/05 04:34:31;;;;;;;;;;;;;;;6.10;71.54;98067.59;5049945;28;20373;-63
2021/12/05 04:36:57;;;;;;;;;;;;;;;6.10;71.27;98075.41;5051321;28;19928;-61
2021/12/05 04:39:25;;;;;;;;;;;;;;;6.09;71.44;98077.19;5050938;28;19966;-61
2021/12/05 04:41:52;;;;;;;;;;;;;;;6.10;72.01;98078.84;5049652;28;20381;-62
2021/12/05 04:44:20;;;;;;;;;;;;;;;6.11;71.51;98080.56;5050999;28;19921;-61
2021/12/05 04:46:46;;;;;;;;;;;;;;;6.11;71.69;98077.94;5051001;28;19924;-62
2021/12/05 04:49:13;;;;;;;;;;;;;;;6.08;71.27;98079.91;5050767;28;20268;-63
2021/12/05 04:51:41;;;;;;;;;;;;;;;6.09;71.37;98085.03;5050884;28;19921;-61
2021/12/05 04:54:10;;;;;;;;;;;;;;;6.09;71.66;98087.63;5050627;28;19925;-62
2021/12/05 04:56:38;;;;;;;;;;;;;;;6.08;71.77;98085.13;5049811;28;20020;-63
2021/12/05 04:59:11;;;;;;;;;;;;;;;6.05;71.22;98091.38;5050734;28;19921;-61
2021/12/05 05:01:38;;;;;;;;;;;;;;;6.06;71.74;98093.06;5050968;28;19925;-62
2021/12/05 05:04:12;;;;;;;;;;;;;;;6.05;71.34;98099.22;5050775;28;19924;-63
2021/12/05 05:06:39;;;;;;;;;;;;;;;6.05;71.57;98101.84;5050785;28;19920;-62
2021/12/05 05:09:06;;;;;;;;;;;;;;;6.06;71.78;98100.06;5049216;28;19928;-65
2021/12/05 05:11:32;;;;;;;;;;;;;;;6.06;71.45;98103.50;5050829;28;19924;-62
2021/12/05 05:13:59;;;;;;;;;;;;;;;6.06;72.21;98103.50;5051018;28;20292;-61
2021/12/05 05:16:26;;;;;;;;;;;;;;;6.06;71.82;98107.91;5050658;28;20399;-62
2021/12/05 05:18:57;;;;;;;;;;;;;;;6.06;71.35;98110.53;5049412;28;19986;-62
2021/12/05 05:29:13;;;;;;;;;;;;;;;6.08;72.23;98119.94;5054368;28;19928;-62
2021/12/05 05:45:50;;;;;;;;;;;;;;;6.12;71.61;98139.69;5053933;28;20289;-63
2021/12/05 05:48:32;;;;;;;;;;;;;;;6.13;71.58;98136.13;5053981;28;20377;-62
2021/12/05 05:51:00;;;;;;;;;;;;;;;6.13;71.13;98153.56;5053967;28;19921;-62
2021/12/05 05:53:26;;;;;;;;;;;;;;;6.14;71.16;98155.28;5054047;28;19925;-63
2021/12/05 05:55:55;;;;;;;;;;;;;;;6.15;71.73;98149.09;5053851;28;19924;-61
2021/12/05 05:58:27;;;;;;;;;;;;;;;6.16;71.16;98163.00;5053259;28;19924;-61
2021/12/05 06:03:24;;;;;;;;;;;;;;;6.18;71.54;98151.53;5054053;28;19921;-61
2021/12/05 06:05:55;;;;;;;;;;;;;;;6.19;71.42;98160.19;5053882;28;19924;-62
2021/12/05 06:08:24;;;;;;;;;;;;;;;6.21;71.83;98168.78;5052513;28;20307;-61
2021/12/05 06:10:53;;;;;;;;;;;;;;;6.22;72.01;98165.22;5052136;28;19928;-61
2021/12/05 06:13:20;;;;;;;;;;;;;;;6.22;71.41;98173.06;5053533;28;19921;-61
2021/12/05 06:15:47;;;;;;;;;;;;;;;6.23;71.75;98177.34;5053712;28;20377;-62
2021/12/05 06:18:13;;;;;;;;;;;;;;;6.22;70.97;98178.28;5053550;28;19927;-62
2021/12/05 06:20:41;;;;;;;;;;;;;;;6.23;71.43;98178.19;5053346;28;20284;-61
2021/12/05 06:23:08;;;;;;;;;;;;;;;6.24;71.52;98179.84;5052520;28;19931;-61
2021/12/05 06:25:36;;;;;;;;;;;;;;;6.25;71.46;98180.72;5053419;28;19921;-61
2021/12/05 06:28:08;;;;;;;;;;;;;;;6.27;71.92;98183.22;5053354;28;20304;-64
2021/12/05 06:30:47;;;;;;;;;;;;;;;6.27;71.92;98184.03;5053077;28;19928;-62
2021/12/05 06:46:28;;;;;;;;;;;;;;;6.30;71.69;98199.53;5052926;28;19924;-62
2021/12/05 06:48:55;;;;;;;;;;;;;;;6.30;71.93;98199.53;5052848;28;20368;-62
2021/12/05 06:51:23;;;;;;;;;;;;;;;6.30;72.07;98209.97;5052692;28;19931;-61
2021/12/05 06:53:50;;;;;;;;;;;;;;;6.30;71.75;98212.59;5053252;28;19924;-62
2021/12/05 06:56:17;;;;;;;;;;;;;;;6.30;71.80;98207.38;5052710;28;20361;-61
2021/12/05 06:58:44;;;;;;;;;;;;;;;6.31;71.54;98216.06;5052747;28;20369;-65
2021/12/05 07:01:11;;;;;;;;;;;;;;;6.31;71.09;98222.09;5052332;28;19947;-61
2021/12/05 07:03:40;;;;;;;;;;;;;;;6.29;71.01;98218.78;5052603;28;20447;-62
2021/12/05 07:06:12;;;;;;;;;;;;;;;6.28;70.92;98224.91;5052377;28;19928;-61
2021/12/05 07:08:41;;;;;;;;;;;;;;;6.26;70.88;98229.41;5051395;28;20347;-64
2021/12/05 07:19:27;;;;;;;;;;;;;;;6.28;71.49;98237.97;5052396;28;19971;-62
2021/12/05 07:22:00;;;;;;;;;;;;;;;6.29;71.57;98244.91;5052366;28;19924;-61
2021/12/05 07:24:44;;;;;;;;;;;;;;;6.30;71.41;98243.97;5050932;28;19925;-62
2021/12/05 07:40:20;;;;;;;;;;;;;;;6.30;71.25;98250.94;5052206;28;19924;-62
2021/12/05 07:41:40;;;;;;;;;;;;;;;6.30;70.84;98257.03;5051477;28;19925;-62
2021/12/05 07:43:57;;;;;;;;;;;;;;;6.31;71.55;98261.31;5051633;28;19925;-62
2021/12/05 07:46:23;;;;;;;;;;;;;;;6.31;71.07;98263.91;5051467;28;20324;-61
2021/12/05 07:48:50;;;;;;;;;;;;;;;6.32;71.20;98265.59;5051672;28;19982;-62
2021/12/05 07:53:57;;;;;;;;;;;;;;;6.32;70.69;98283.06;5051425;28;19924;-61
2021/12/05 07:56:39;;;;;;;;;;;;;;;6.32;71.27;98280.44;5051602;28;20331;-62
2021/12/05 08:15:31;;;;;;;;;;;;;;;6.38;71.59;98285.28;5051431;28;20612;-62
2021/12/05 08:17:58;;;;;;;;;;;;;;;6.38;71.50;98291.34;5051624;28;20460;-62
2021/12/05 08:20:25;;;;;;;;;;;;;;;6.38;71.32;98293.97;5050928;28;19920;-61
2021/12/05 08:22:52;;;;;;;;;;;;;;;6.39;71.13;98293.03;5051099;28;19925;-63
2021/12/05 08:25:25;;;;;;;;;;;;;;;6.41;71.28;98302.53;5051295;28;19971;-61
2021/12/05 08:27:56;;;;;;;;;;;;;;;6.42;71.55;98304.22;5050173;28;19925;-61
2021/12/05 08:30:36;;;;;;;;;;;;;;;6.43;71.91;98303.28;5051148;28;19929;-65
2021/12/05 08:39:08;;;;;;;;;;;;;;;6.41;70.43;98311.22;5051097;28;19925;-62
2021/12/05 08:43:48;;;;;;;;;;;;;;;6.41;71.51;98306.00;5050911;28;19925;-64
2021/12/05 09:20:26;;;;;;;;;;;;;;;6.60;72.34;98365.81;5054633;28;20300;-65
2021/12/05 09:25:00;;;;;;;;;;;;;;;6.68;72.36;98380.16;5054428;28;19920;-62
2021/12/05 10:08:43;;;;;;;;;;;;;;;7.19;73.61;98457.19;5053585;28;19925;-61
2021/12/05 10:16:32;;;;;;;;;;;;;;;7.42;73.75;98469.66;5053912;28;19921;-60
2021/12/05 10:38:34;;;;;;;;;;;;;;;8.12;73.77;98481.72;5053222;28;19924;-63
2021/12/05 10:41:34;;;;;;;;;;;;;;;8.18;73.47;98484.78;5051557;28;20430;-64
2021/12/05 10:43:54;;;;;;;;;;;;;;;8.25;73.60;98489.59;5052783;28;19931;-64
2021/12/05 10:46:22;;;;;;;;;;;;;;;8.30;73.61;98485.72;5051504;28;20372;-61
2021/12/05 10:48:50;;;;;;;;;;;;;;;8.36;73.70;98487.09;5053301;28;19929;-64
2021/12/05 10:51:27;;;;;;;;;;;;;;;8.42;73.64;98489.31;5052747;28;19925;-62
2021/12/05 10:53:55;;;;;;;;;;;;;;;8.47;73.42;98494.22;5053098;28;19924;-61
2021/12/05 10:56:29;;;;;;;;;;;;;;;8.49;73.15;98500.22;5051497;28;19921;-62
2021/12/05 10:59:04;;;;;;;;;;;;;;;8.51;73.14;98497.47;5052770;28;19920;-62
2021/12/05 11:01:34;;;;;;;;;;;;;;;8.52;72.57;98496.53;5052759;28;19932;-62
2021/12/05 11:04:00;;;;;;;;;;;;;;;8.51;72.22;98505.31;5052763;28;19925;-61
2021/12/05 11:06:30;;;;;;;;;;;;;;;8.50;72.76;98501.03;5052515;28;19927;-63
2021/12/05 11:09:05;;;;;;;;;;;;;;;8.50;72.69;98503.66;5052559;28;19920;-62
2021/12/05 11:11:32;;;;;;;;;;;;;;;8.51;72.75;98518.44;5052376;28;19950;-62
2021/12/05 11:14:01;;;;;;;;;;;;;;;8.53;72.79;98514.84;5052796;28;19925;-61
2021/12/05 11:16:42;;;;;;;;;;;;;;;8.54;71.34;98524.38;5051138;28;20289;-62
2021/12/05 11:19:14;;;;;;;;;;;;;;;8.54;71.01;98529.63;5051077;28;19921;-62
2021/12/05 11:21:47;;;;;;;;;;;;;;;8.54;69.47;98534.00;5052303;28;19974;-61
2021/12/05 11:24:16;;;;;;;;;;;;;;;8.51;69.59;98528.94;5050439;28;20485;-65
2021/12/05 11:26:46;;;;;;;;;;;;;;;8.46;69.03;98527.47;5050924;28;20339;-60
2021/12/05 11:29:12;;;;;;;;;;;;;;;8.43;70.04;98537.34;5052010;28;19928;-61
2021/12/05 11:31:39;;;;;;;;;;;;;;;8.41;70.60;98537.44;5052004;28;19921;-62
2021/12/05 11:34:06;;;;;;;;;;;;;;;8.41;70.38;98531.38;5052181;28;20284;-62
2021/12/05 11:36:34;;;;;;;;;;;;;;;8.39;70.04;98536.72;5052619;28;19932;-61
2021/12/05 11:39:21;;;;;;;;;;;;;;;8.38;70.75;98528.94;5052090;28;19929;-61
2021/12/05 11:41:48;;;;;;;;;;;;;;;8.38;71.50;98536.81;5052034;28;19928;-61
2021/12/05 11:44:16;;;;;;;;;;;;;;;8.39;71.75;98536.72;5051781;28;19925;-63
2021/12/05 11:46:44;;;;;;;;;;;;;;;8.42;71.99;98536.50;5051707;28;19943;-61
2021/12/05 11:49:13;;;;;;;;;;;;;;;8.45;72.46;98541.53;5050544;28;20023;-62
2021/12/05 11:51:47;;;;;;;;;;;;;;;8.50;71.53;98541.22;5051981;28;19924;-65
2021/12/05 11:54:16;;;;;;;;;;;;;;;8.53;71.77;98534.97;5050625;28;19971;-61
2021/12/05 11:56:48;;;;;;;;;;;;;;;8.54;71.89;98540.09;5051770;28;19924;-64
2021/12/05 11:59:14;;;;;;;;;;;;;;;8.56;72.27;98542.63;5051241;28;19928;-61
2021/12/05 12:01:46;;;;;;;;;;;;;;;8.56;72.03;98540.81;5051517;28;19924;-63
2021/12/05 12:04:14;;;;;;;;;;;;;;;8.59;72.24;98538.00;5050379;28;20365;-61
2021/12/05 12:06:42;;;;;;;;;;;;;;;8.63;72.39;98545.66;5051431;28;20385;-62
2021/12/05 12:09:12;;;;;;;;;;;;;;;8.64;71.89;98542.09;5051433;28;20624;-62
2021/12/05 12:11:39;;;;;;;;;;;;;;;8.65;71.58;98549.88;5051238;28;19925;-62
2021/12/05 12:14:05;;;;;;;;;;;;;;;8.64;71.00;98553.44;5051582;28;20387;-62
2021/12/05 12:16:33;;;;;;;;;;;;;;;8.62;70.76;98542.19;5051355;28;19928;-61
2021/12/05 12:19:02;;;;;;;;;;;;;;;8.60;69.57;98549.34;5051322;28;19975;-62
2021/12/05 12:21:38;;;;;;;;;;;;;;;8.59;70.81;98556.38;5051106;28;19925;-62
2021/12/05 12:24:05;;;;;;;;;;;;;;;8.59;71.46;98558.13;5051217;28;19928;-61
2021/12/05 12:26:32;;;;;;;;;;;;;;;8.60;71.95;98555.41;5051116;28;20381;-61
2021/12/05 12:28:59;;;;;;;;;;;;;;;8.63;72.29;98559.59;5051157;28;19921;-60
2021/12/05 12:31:31;;;;;;;;;;;;;;;8.66;72.23;98564.66;5049784;28;19920;-61
2021/12/05 12:34:09;;;;;;;;;;;;;;;8.70;72.55;98563.50;5049497;28;20015;-61
2021/12/05 12:36:50;;;;;;;;;;;;;;;8.73;72.48;98560.66;5050505;28;19920;-62
2021/12/05 12:39:17;;;;;;;;;;;;;;;8.79;72.43;98561.19;5050900;28;19928;-63
2021/12/05 12:42:03;;;;;;;;;;;;;;;8.83;72.81;98570.53;5051188;28;19936;-61
2021/12/05 12:44:29;;;;;;;;;;;;;;;8.88;72.58;98570.19;5050872;28;19928;-63
2021/12/05 12:47:06;;;;;;;;;;;;;;;8.91;72.52;98570.84;5050890;28;19925;-61
2021/12/05 12:49:40;;;;;;;;;;;;;;;8.94;72.48;98577.66;5050773;28;19921;-61
2021/12/05 12:52:11;;;;;;;;;;;;;;;8.96;71.56;98583.63;5049689;28;19928;-61
2021/12/05 12:54:42;;;;;;;;;;;;;;;8.96;71.66;98584.47;5050868;28;19924;-62
2021/12/05 12:57:35;;;;;;;;;;;;;;;8.95;71.86;98585.44;5050786;28;19921;-61
2021/12/05 13:00:04;;;;;;;;;;;;;;;8.95;71.63;98588.06;5049666;28;19921;-61
2021/12/05 13:11:06;;;;;;;;;;;;;;;8.99;71.90;98586.91;5049757;28;19924;-62
2021/12/05 13:13:35;;;;;;;;;;;;;;;9.01;71.85;98586.75;5050210;28;19925;-61
2021/12/05 13:16:14;;;;;;;;;;;;;;;9.02;71.58;98590.25;5050764;28;19932;-62
2021/12/05 13:18:41;;;;;;;;;;;;;;;9.02;71.72;98587.63;5050581;28;19975;-61
2021/12/05 13:21:11;;;;;;;;;;;;;;;9.03;71.97;98597.16;5049097;28;19928;-63
2021/12/05 13:23:42;;;;;;;;;;;;;;;9.04;72.24;98596.25;5049401;28;19927;-61
2021/12/05 13:26:27;;;;;;;;;;;;;;;9.08;72.26;98602.97;5049353;28;20316;-61
2021/12/05 13:29:09;;;;;;;;;;;;;;;9.12;72.52;98604.41;5050432;28;19928;-61
2021/12/05 13:31:56;;;;;;;;;;;;;;;9.17;72.57;98604.94;5050680;28;20039;-63
2021/12/05 13:34:26;;;;;;;;;;;;;;;9.21;72.40;98605.56;5050345;28;19924;-62
2021/12/05 13:36:55;;;;;;;;;;;;;;;9.25;72.43;98604.38;5050413;28;19925;-61
2021/12/05 13:39:40;;;;;;;;;;;;;;;9.28;72.44;98604.19;5049160;28;19928;-62
2021/12/05 13:42:16;;;;;;;;;;;;;;;9.30;72.55;98609.34;5050420;28;20444;-62
2021/12/05 13:45:00;;;;;;;;;;;;;;;9.32;72.28;98610.91;5049012;28;19921;-62
2021/12/05 13:47:31;;;;;;;;;;;;;;;9.34;72.10;98621.28;5049134;28;19925;-61
2021/12/05 13:50:25;;;;;;;;;;;;;;;9.34;71.74;98630.00;5052612;28;20369;-60
2021/12/05 13:52:55;;;;;;;;;;;;;;;9.33;71.85;98630.94;5052948;28;19933;-61
2021/12/05 13:55:34;;;;;;;;;;;;;;;9.32;72.00;98629.28;5053853;28;19931;-62
2021/12/05 13:58:16;;;;;;;;;;;;;;;9.32;72.21;98638.94;5053705;28;19925;-63
2021/12/05 14:00:47;;;;;;;;;;;;;;;9.32;72.10;98639.78;5053872;28;19924;-61
2021/12/05 14:03:36;;;;;;;;;;;;;;;9.31;72.04;98643.34;5052907;28;19978;-63
2021/12/05 14:06:03;;;;;;;;;;;;;;;9.30;71.98;98646.09;5053367;28;19927;-61
2021/12/05 14:08:29;;;;;;;;;;;;;;;9.30;71.90;98648.72;5053509;28;19925;-62
2021/12/05 14:10:56;;;;;;;;;;;;;;;9.30;71.93;98656.59;5053401;28;19924;-69
2021/12/05 14:13:22;;;;;;;;;;;;;;;9.29;71.92;98660.16;5052394;28;19920;-60
2021/12/05 14:15:56;;;;;;;;;;;;;;;9.28;71.71;98663.72;5052410;28;19921;-61
2021/12/05 14:18:24;;;;;;;;;;;;;;;9.26;71.82;98666.47;5052355;28;19943;-61
2021/12/05 14:20:50;;;;;;;;;;;;;;;9.24;71.71;98676.25;5053320;28;19928;-68
2021/12/05 14:23:20;;;;;;;;;;;;;;;9.22;71.67;98673.72;5053651;28;19921;-61
2021/12/05 14:25:48;;;;;;;;;;;;;;;9.20;71.62;98680.03;5052491;28;19921;-62
2021/12/05 14:28:14;;;;;;;;;;;;;;;9.16;71.63;98689.88;5053417;28;19925;-61
2021/12/05 14:30:43;;;;;;;;;;;;;;;9.13;71.46;98700.59;5051898;28;19947;-62
2021/12/05 14:33:09;;;;;;;;;;;;;;;9.10;71.42;98698.19;5053356;28;19926;-65
2021/12/05 14:35:38;;;;;;;;;;;;;;;9.07;71.63;98701.00;5053501;28;19925;-61
2021/12/05 14:38:06;;;;;;;;;;;;;;;9.04;71.69;98704.69;5052116;28;20015;-62
2021/12/05 14:40:34;;;;;;;;;;;;;;;9.02;71.43;98705.72;5053030;28;20031;-62
2021/12/05 14:43:04;;;;;;;;;;;;;;;9.01;71.41;98714.56;5053228;28;19931;-62
2021/12/05 14:45:31;;;;;;;;;;;;;;;8.97;71.48;98714.75;5053316;28;19924;-62
2021/12/05 14:48:02;;;;;;;;;;;;;;;8.95;71.62;98721.91;5051802;28;20003;-64
2021/12/05 14:50:47;;;;;;;;;;;;;;;8.91;71.66;98720.44;5051428;28;20361;-64
2021/12/05 14:53:17;;;;;;;;;;;;;;;8.88;71.60;98731.13;5051795;28;19924;-61
2021/12/05 14:55:46;;;;;;;;;;;;;;;8.86;71.37;98738.28;5052936;28;20373;-63
2021/12/05 14:58:15;;;;;;;;;;;;;;;8.82;71.11;98747.28;5053035;28;19939;-61
2021/12/05 15:00:47;;;;;;;;;;;;;;;8.78;71.33;98757.13;5052515;28;20007;-61
2021/12/05 15:03:17;;;;;;;;;;;;;;;8.72;71.28;98758.38;5051807;28;20756;-60
2021/12/05 15:05:46;;;;;;;;;;;;;;;8.69;71.26;98769.09;5052785;28;19925;-60
2021/12/05 15:08:14;;;;;;;;;;;;;;;8.65;71.42;98777.25;5052314;28;19925;-62
2021/12/05 15:10:42;;;;;;;;;;;;;;;8.60;71.47;98774.94;5051524;28;20393;-63
2021/12/05 15:13:09;;;;;;;;;;;;;;;8.56;71.43;98781.31;5052345;28;19927;-61
2021/12/05 15:15:36;;;;;;;;;;;;;;;8.51;71.34;98780.72;5052340;28;19928;-62
2021/12/05 15:18:03;;;;;;;;;;;;;;;8.47;71.48;98791.44;5052262;28;19929;-62
2021/12/05 15:20:32;;;;;;;;;;;;;;;8.43;71.42;98784.69;5051916;28;19928;-62
2021/12/05 15:23:02;;;;;;;;;;;;;;;8.40;71.51;98790.13;5050342;28;19929;-61
2021/12/05 15:25:29;;;;;;;;;;;;;;;8.37;71.27;98797.34;5050791;28;19936;-63
2021/12/05 15:27:57;;;;;;;;;;;;;;;8.34;71.38;98801.84;5050543;28;20444;-61
2021/12/05 15:30:29;;;;;;;;;;;;;;;8.32;71.75;98797.63;5052235;28;20011;-61
2021/12/05 15:32:58;;;;;;;;;;;;;;;8.31;71.61;98811.69;5051794;28;19921;-61
2021/12/05 15:35:25;;;;;;;;;;;;;;;8.28;71.70;98806.63;5051825;28;20384;-60
2021/12/05 15:38:05;;;;;;;;;;;;;;;8.27;71.63;98810.19;5052020;28;19920;-62
2021/12/05 15:40:32;;;;;;;;;;;;;;;8.25;71.72;98817.28;5051982;28;19924;-62
2021/12/05 15:43:00;;;;;;;;;;;;;;;8.23;71.53;98820.03;5051064;28;19925;-62
2021/12/05 15:45:27;;;;;;;;;;;;;;;8.20;71.63;98820.22;5051941;28;19992;-61
2021/12/05 15:47:53;;;;;;;;;;;;;;;8.18;71.72;98817.69;5051033;28;19924;-64
2021/12/05 15:50:21;;;;;;;;;;;;;;;8.18;71.60;98822.94;5051737;28;19925;-62
2021/12/05 15:52:49;;;;;;;;;;;;;;;8.16;71.86;98826.59;5051331;28;20293;-62
2021/12/05 15:55:22;;;;;;;;;;;;;;;8.15;71.78;98830.97;5049988;28;19925;-62
2021/12/05 15:57:53;;;;;;;;;;;;;;;8.15;71.92;98830.97;5050136;28;20389;-63
2021/12/05 16:00:20;;;;;;;;;;;;;;;8.15;71.64;98838.84;5050163;28;20300;-61
2021/12/05 16:02:47;;;;;;;;;;;;;;;8.16;71.74;98840.56;5051455;28;20376;-60
2021/12/05 16:05:17;;;;;;;;;;;;;;;8.15;71.98;98846.72;5050696;28;19921;-62
2021/12/05 16:07:43;;;;;;;;;;;;;;;8.15;71.95;98849.34;5051502;28;19928;-60
2021/12/05 16:10:16;;;;;;;;;;;;;;;8.15;71.85;98849.34;5051422;28;20328;-62
2021/12/05 16:12:43;;;;;;;;;;;;;;;8.15;71.83;98857.19;5049953;28;19929;-60
2021/12/05 16:15:10;;;;;;;;;;;;;;;8.14;71.94;98858.13;5050255;28;19951;-64
2021/12/05 16:17:36;;;;;;;;;;;;;;;8.14;71.78;98863.38;5051298;28;19925;-62
2021/12/05 16:20:20;;;;;;;;;;;;;;;8.14;71.96;98868.63;5051217;28;19930;-62
2021/12/05 16:22:54;;;;;;;;;;;;;;;8.12;71.99;98873.13;5050169;28;19951;-61
2021/12/05 16:25:21;;;;;;;;;;;;;;;8.11;71.77;98878.47;5051578;28;19931;-63
2021/12/05 16:27:54;;;;;;;;;;;;;;;8.10;71.74;98882.84;5051299;28;19921;-62
2021/12/05 16:30:25;;;;;;;;;;;;;;;8.08;71.78;98877.69;5051085;28;19920;-62
2021/12/05 16:32:52;;;;;;;;;;;;;;;8.08;71.77;98885.56;5051184;28;19924;-62
2021/12/05 16:35:24;;;;;;;;;;;;;;;8.07;71.98;98886.50;5051264;28;19929;-63
2021/12/05 16:37:51;;;;;;;;;;;;;;;8.06;71.91;98892.69;5050984;28;20373;-62
2021/12/05 16:40:18;;;;;;;;;;;;;;;8.06;71.89;98894.47;5049506;28;19935;-61
2021/12/05 16:42:45;;;;;;;;;;;;;;;8.05;72.00;98895.41;5051441;28;19925;-62
2021/12/05 16:45:12;;;;;;;;;;;;;;;8.04;71.79;98896.34;5050789;28;19924;-63
2021/12/05 16:47:38;;;;;;;;;;;;;;;8.04;71.76;98899.78;5050977;28;20399;-61
2021/12/05 16:50:07;;;;;;;;;;;;;;;8.03;71.91;98900.72;5050548;28;19925;-62
2021/12/05 16:52:36;;;;;;;;;;;;;;;8.03;71.89;98905.13;5049611;28;19921;-62
2021/12/05 16:55:19;;;;;;;;;;;;;;;8.02;72.13;98909.53;5049632;28;19925;-62
2021/12/05 16:57:56;;;;;;;;;;;;;;;8.01;72.06;98913.09;5051059;28;19924;-61
2021/12/05 17:00:23;;;;;;;;;;;;;;;8.01;71.92;98923.59;5050810;28;20517;-61
2021/12/05 17:02:53;;;;;;;;;;;;;;;8.01;71.91;98917.50;5050833;28;20451;-66
2021/12/05 17:05:26;;;;;;;;;;;;;;;8.01;71.95;98927.97;5050901;28;19943;-61
2021/12/05 17:07:57;;;;;;;;;;;;;;;7.99;71.84;98925.44;5050973;28;19952;-64
2021/12/05 17:10:24;;;;;;;;;;;;;;;7.99;71.96;98937.72;5050841;28;19931;-61
2021/12/05 17:12:53;;;;;;;;;;;;;;;7.99;71.69;98945.59;5051063;28;19922;-61
2021/12/05 17:15:22;;;;;;;;;;;;;;;7.98;72.07;98946.50;5050972;28;19982;-61
2021/12/05 17:17:49;;;;;;;;;;;;;;;7.97;72.08;98947.44;5050623;28;19927;-61
2021/12/05 17:20:26;;;;;;;;;;;;;;;7.97;71.94;98950.06;5050645;28;19927;-62
2021/12/05 17:22:59;;;;;;;;;;;;;;;7.95;72.11;98953.63;5051804;28;19944;-60
2021/12/05 17:25:27;;;;;;;;;;;;;;;7.95;72.00;98952.75;5054446;28;20300;-63
2021/12/05 17:27:54;;;;;;;;;;;;;;;7.94;71.92;98965.03;5054435;28;20586;-61
2021/12/05 17:30:20;;;;;;;;;;;;;;;7.95;72.14;98965.88;5054146;28;19929;-65
2021/12/05 17:32:47;;;;;;;;;;;;;;;7.94;71.94;98961.56;5054540;28;20007;-67
2021/12/05 17:35:13;;;;;;;;;;;;;;;7.93;72.17;98960.72;5054555;28;19921;-61
2021/12/05 17:37:43;;;;;;;;;;;;;;;7.93;72.02;98967.75;5054423;28;19924;-64
2021/12/05 17:40:29;;;;;;;;;;;;;;;7.93;72.04;98967.75;5054162;28;19927;-60
2021/12/05 17:42:56;;;;;;;;;;;;;;;7.92;72.12;98969.50;5053930;28;19928;-64
2021/12/05 17:45:22;;;;;;;;;;;;;;;7.90;72.13;98974.00;5054276;28;19932;-61
2021/12/05 17:47:49;;;;;;;;;;;;;;;7.92;72.01;98987.84;5054141;28;19928;-63
2021/12/05 17:50:19;;;;;;;;;;;;;;;7.91;72.07;98982.69;5053920;28;19931;-62
2021/12/05 17:52:48;;;;;;;;;;;;;;;7.90;72.21;98989.75;5053193;28;19925;-62
2021/12/05 17:55:29;;;;;;;;;;;;;;;7.90;71.94;98992.34;5052780;28;19936;-62
2021/12/05 17:58:02;;;;;;;;;;;;;;;7.90;72.11;98994.13;5054082;28;19954;-63
2021/12/05 18:02:59;;;;;;;;;;;;;;;7.88;72.04;98996.81;5053807;28;19929;-62
2021/12/05 18:05:28;;;;;;;;;;;;;;;7.88;72.25;99004.69;5051693;28;19925;-61
2021/12/05 18:07:56;;;;;;;;;;;;;;;7.88;72.13;99004.69;5053516;28;19927;-62
2021/12/05 18:10:25;;;;;;;;;;;;;;;7.87;72.11;99010.00;5053663;28;20012;-62
2021/12/05 18:12:56;;;;;;;;;;;;;;;7.85;72.22;99017.13;5053004;28;19928;-61
2021/12/05 18:15:48;;;;;;;;;;;;;;;7.84;72.13;99029.38;5053953;28;19931;-62
2021/12/05 18:18:16;;;;;;;;;;;;;;;7.83;72.15;99027.69;5053835;28;19920;-62
2021/12/05 18:20:43;;;;;;;;;;;;;;;7.81;72.02;99035.66;5051675;28;19932;-64
2021/12/05 18:23:10;;;;;;;;;;;;;;;7.79;71.92;99032.28;5053059;28;19927;-62
2021/12/05 18:25:37;;;;;;;;;;;;;;;7.78;72.36;99035.00;5053204;28;19921;-64